Tropical Cyclones
[Index]
Main Index Home Page Stock Weather Photos Extreme Storms Discussion Storm News and Storm Chasing Reports Tropical Cyclones / Hurricanes / Typhoons Weather Data and Links Wild Fires / Bushfires Weather Observation Techniques Weather Picture Catalogue Tornado Pictures and Reports Stock Video Footage and DVDs for sale
Season 1982-1983 Tropical Cyclone DES Track Map
Season 1982-1983 Summaries: [BoM-AU] [JTWC-AU] [JTWC-SIO] [JTWC-SPAC] [JTWC-SH]
<<- Previous TC | JTWC 1982-1983 Season | Next TC ->>

click for intensity scale information  Lat/long Grid: Show Hide

 Date Labels: Show Hide

Joint Typhoon Warning Centre Cyclone Data

Name: DES

13 Jan 1983 18:00 UTC to 24 Jan 1983 18:00 UTC

    date/time    lat    long     hPa   cat  kts
1983-01-13 18   14.6   142.6                  15          
1983-01-14 00   14.8   144.1                  15          
1983-01-14 06   15.2   145.3                  20          
1983-01-14 12   15.9   146.2                  20          
1983-01-14 18   16.5   147.1                  25          
1983-01-15 00   16.8   147.9                  25          
1983-01-15 06   17.2   148.8                  30          
1983-01-15 12   17.5   149.7                  35          
1983-01-15 18   17.9   150.7            1     40          
1983-01-16 00   18.3   151.6            1     45          
1983-01-16 06   18.8   152.5            1     50          
1983-01-16 12   19.2   153.4            2     55          
1983-01-16 18   19.6   154.2            2     55          
1983-01-17 00   20.1   154.8            2     55          
1983-01-17 06   20.6   155.4            2     55          
1983-01-17 12   21.1   156.0            2     55          
1983-01-17 18   21.5   156.5            2     55          
1983-01-18 00   21.9   156.9            2     55          
1983-01-18 06   22.1   157.2            1     50          
1983-01-18 12   21.9   157.7            1     50          
1983-01-18 18   21.4   158.2            1     45          
1983-01-19 00   20.9   158.3            1     40          
1983-01-19 06   20.3   158.0                  35          
1983-01-19 12   19.6   157.6                  30          
1983-01-19 18   18.8   157.1                  30          
1983-01-20 00   17.9   156.6                  30          
1983-01-20 06   16.9   156.2                  30          
1983-01-20 12   16.1   155.8                  30          
1983-01-20 18   15.4   155.5                  30          
1983-01-21 00   14.9   155.2                  30          
1983-01-21 06   14.5   154.8                  30          
1983-01-21 12   14.1   154.6                  30          
1983-01-21 18   13.7   154.5                  25          
1983-01-22 00   13.1   154.5                  25          
1983-01-22 06   12.5   154.6                  20          
1983-01-22 12   12.0   155.0                  20          
1983-01-22 18   11.6   155.7                  25          
1983-01-23 00   11.5   156.8                  25          
1983-01-23 06   11.7   157.8                  25          
1983-01-23 12   12.0   158.3                  25          
1983-01-23 18   12.2   158.8                  25          
1983-01-24 00   12.2   159.2                  25          
1983-01-24 06   12.2   159.7                  25          
1983-01-24 12   12.2   160.2                  25          
1983-01-24 18   12.2   160.8                  20          
Winds are 1-min average.

Tropical cyclone tracks developed by Michael Bath using data from the Joint Typhoon Warning Centre Best Tracks and Google Maps.


[Australian Severe Weather index] [Copyright Notice] [Email Contacts] [Search This Site] [Privacy Policy]
Document: tropical_cyclone_des.htm Updated: 18 September 2016